Time;durP1;ratioP1;P1;durP2;ratioP2;P2;SDS_P1;SDS_P2;PMS_P1;PMS_P2;Temp;Humidity;BMP_temperature;BMP_pressure;BME280_temperature;BME280_humidity;BME280_pressure;Samples;Min_cycle;Max_cycle;Signal;HPM_P1;HPM_P2
2021/08/15 00:01:09;;;;;;;;;;;;;;;;;;;;;
2021/08/15 00:03:51;;;;;;;96.57;91.47;;;13.90;99.20;;;;;;6173405;23;20415;-90
2021/08/15 00:06:57;;;;;;;109.53;103.80;;;13.90;99.20;;;;;;6215851;23;20417;-91
2021/08/15 00:10:05;;;;;;;107.33;101.60;;;13.80;99.90;;;;;;6158270;23;20458;-89
2021/08/15 00:12:54;;;;;;;113.40;107.90;;;13.90;99.90;;;;;;6182475;23;20743;-89
2021/08/15 00:15:41;;;;;;;;;;;;;;;;;;;;;
2021/08/15 00:18:37;;;;;;;116.57;111.00;;;13.80;99.90;;;;;;6151018;23;20414;-90
2021/08/15 00:21:54;;;;;;;;;;;;;;;;;;;;;
2021/08/15 00:24:46;;;;;;;;;;;;;;;;;;;;;
2021/08/15 00:27:40;;;;;;;;;;;;;;;;;;;;;
2021/08/15 00:33:45;;;;;;;;;;;;;;;;;;;;;
2021/08/15 00:36:44;;;;;;;;;;;;;;;;;;;;;
2021/08/15 00:39:56;;;;;;;116.53;111.03;;;13.60;99.90;;;;;;6224705;23;20406;-88
2021/08/15 00:46:01;;;;;;;101.07;96.07;;;13.50;99.90;;;;;;6195826;23;20424;-89
2021/08/15 00:49:01;;;;;;;101.23;95.37;;;13.50;99.90;;;;;;6225710;23;20972;-89
2021/08/15 00:58:19;;;;;;;;;;;;;;;;;;;;;
2021/08/15 01:01:25;;;;;;;;;;;;;;;;;;;;;
2021/08/15 01:08:05;;;;;;;135.50;128.67;;;13.50;99.90;;;;;;5937622;24;21001;-90
2021/08/15 01:14:16;;;;;;;141.70;134.57;;;13.60;99.90;;;;;;5975110;24;20902;-90
2021/08/15 01:17:22;;;;;;;;;;;;;;;;;;;;;
2021/08/15 01:20:08;;;;;;;126.83;119.57;;;13.70;99.90;;;;;;6032838;23;20456;-91
2021/08/15 01:25:58;;;;;;;135.23;128.33;;;13.70;99.90;;;;;;6061957;23;20497;-86
2021/08/15 01:28:44;;;;;;;125.80;118.73;;;13.60;99.90;;;;;;6204148;23;20427;-90
2021/08/15 01:31:31;;;;;;;120.60;113.90;;;13.60;99.90;;;;;;6222530;23;20536;-88
2021/08/15 01:33:58;;;;;;;112.40;106.37;;;13.60;99.90;;;;;;6215203;23;20518;-89
2021/08/15 01:39:40;;;;;;;;;;;;;;;;;;;;;
2021/08/15 01:42:27;;;;;;;121.47;115.53;;;13.60;99.90;;;;;;6225238;23;20490;-89
2021/08/15 01:45:33;;;;;;;;;;;;;;;;;;;;;
2021/08/15 01:48:40;;;;;;;141.17;134.40;;;13.80;99.90;;;;;;6165613;23;20422;-90
2021/08/15 01:51:17;;;;;;;122.73;115.80;;;13.90;99.90;;;;;;6187849;23;20723;-89
2021/08/15 01:54:25;;;;;;;127.93;121.27;;;13.90;99.90;;;;;;6223989;23;20406;-89
2021/08/15 01:57:09;;;;;;;;;;;;;;;;;;;;;
2021/08/15 01:59:46;;;;;;;123.07;117.23;;;14.00;99.90;;;;;;6225539;23;20396;-91
2021/08/15 02:02:43;;;;;;;113.47;107.83;;;14.00;99.90;;;;;;6224738;23;20446;-91
2021/08/15 02:05:18;;;;;;;98.20;92.67;;;14.00;99.90;;;;;;6214924;23;20411;-87
2021/08/15 02:08:06;;;;;;;89.43;84.47;;;13.90;99.90;;;;;;6223965;23;20757;-88
2021/08/15 02:14:11;;;;;;;96.63;90.93;;;14.10;99.90;;;;;;6207609;23;20443;-89
2021/08/15 02:17:01;;;;;;;94.47;88.80;;;14.10;99.90;;;;;;6227146;23;20407;-90
2021/08/15 02:19:36;;;;;;;70.23;66.53;;;14.40;99.90;;;;;;6216617;23;20483;-88
2021/08/15 02:22:14;;;;;;;64.83;61.13;;;14.50;99.90;;;;;;6216929;23;20872;-90
2021/08/15 02:25:00;;;;;;;56.00;52.10;;;14.50;99.90;;;;;;6226781;23;20409;-89
2021/08/15 02:27:39;;;;;;;46.90;43.83;;;14.60;99.90;;;;;;6214698;23;20457;-86
2021/08/15 02:30:25;;;;;;;42.83;40.03;;;14.70;99.90;;;;;;6226469;23;20446;-88
2021/08/15 02:32:57;;;;;;;35.00;31.87;;;14.80;99.90;;;;;;6226632;23;20897;-88
2021/08/15 02:44:01;;;;;;;34.63;32.23;;;14.50;97.40;;;;;;6226489;23;20894;-88
2021/08/15 02:46:52;;;;;;;32.40;30.20;;;14.20;97.70;;;;;;6226856;23;20411;-87
2021/08/15 02:50:00;;;;;;;;;;;;;;;;;;;;;
2021/08/15 02:52:33;;;;;;;52.07;48.97;;;13.90;97.80;;;;;;6074533;23;20578;-90
2021/08/15 02:55:15;;;;;;;69.03;65.50;;;13.80;99.90;;;;;;6127314;23;20419;-90
2021/08/15 02:57:51;;;;;;;87.63;83.23;;;13.80;99.90;;;;;;6226356;23;20411;-91
2021/08/15 03:00:46;;;;;;;86.23;82.03;;;13.90;99.90;;;;;;6226619;23;20746;-88
2021/08/15 03:03:45;;;;;;;69.83;65.50;;;13.80;99.90;;;;;;6213336;23;20423;-91
2021/08/15 03:06:40;;;;;;;71.73;68.20;;;13.90;99.90;;;;;;6226574;23;20451;-90
2021/08/15 03:09:21;;;;;;;86.23;81.87;;;13.80;99.90;;;;;;6207561;23;20415;-87
2021/08/15 03:11:59;;;;;;;85.47;81.13;;;13.80;99.90;;;;;;6176666;23;20549;-90
2021/08/15 03:14:37;;;;;;;76.40;71.30;;;13.80;99.90;;;;;;6216685;23;20402;-89
2021/08/15 03:17:37;;;;;;;;;;;;;;;;;;;;;
2021/08/15 03:20:41;;;;;;;;;;;;;;;;;;;;;
2021/08/15 03:25:58;;;;;;;82.43;78.23;;;13.40;99.90;;;;;;6213364;23;20975;-90
2021/08/15 03:28:35;;;;;;;;;;;;;;;;;;;;;
2021/08/15 03:31:13;;;;;;;78.97;75.17;;;13.20;99.90;;;;;;6215642;23;20446;-89
2021/08/15 03:33:47;;;;;;;90.43;85.73;;;13.10;99.90;;;;;;6215926;23;20446;-89
2021/08/15 03:36:41;;;;;;;102.47;97.43;;;12.90;99.90;;;;;;6216248;23;20394;-89
2021/08/15 03:39:17;;;;;;;105.03;98.97;;;12.80;99.90;;;;;;6205080;23;20444;-87
2021/08/15 03:41:58;;;;;;;111.37;105.77;;;12.80;99.90;;;;;;6226336;23;20497;-88
2021/08/15 03:44:39;;;;;;;;;;;;;;;;;;;;;
2021/08/15 03:47:15;;;;;;;131.63;124.73;;;12.70;99.90;;;;;;6225985;23;20402;-90
2021/08/15 03:49:51;;;;;;;145.20;137.90;;;12.70;99.90;;;;;;6226072;23;20413;-90
2021/08/15 03:52:24;;;;;;;146.47;138.97;;;12.80;99.90;;;;;;6224560;23;20440;-89
2021/08/15 03:54:53;;;;;;;153.33;144.97;;;12.70;99.90;;;;;;6225980;23;20421;-89
2021/08/15 03:57:24;;;;;;;148.70;141.13;;;12.70;99.90;;;;;;6225593;23;20971;-89
2021/08/15 04:00:00;;;;;;;150.40;142.73;;;12.70;99.90;;;;;;6216077;23;20402;-89
2021/08/15 04:02:28;;;;;;;148.33;141.13;;;12.70;99.90;;;;;;6215613;23;20400;-89
2021/08/15 04:05:16;;;;;;;149.77;142.30;;;12.60;99.90;;;;;;6216087;23;20404;-90
2021/08/15 04:07:47;;;;;;;148.60;140.90;;;12.60;99.90;;;;;;6213677;23;20414;-89
2021/08/15 04:10:16;;;;;;;152.67;145.63;;;12.50;99.90;;;;;;6225367;23;20950;-85
2021/08/15 04:13:15;;;;;;;154.33;146.53;;;12.50;99.90;;;;;;6225537;23;20417;-88
2021/08/15 04:16:03;;;;;;;156.83;149.87;;;12.40;99.90;;;;;;6103989;23;20423;-89
2021/08/15 04:18:40;;;;;;;162.63;154.37;;;12.40;99.90;;;;;;6182616;23;20418;-90
2021/08/15 04:21:11;;;;;;;159.60;152.37;;;12.40;99.90;;;;;;6225747;23;20408;-89
2021/08/15 04:23:38;;;;;;;173.70;164.67;;;12.40;99.90;;;;;;6224944;23;20892;-82
2021/08/15 04:26:10;;;;;;;172.57;164.30;;;12.50;99.90;;;;;;6225533;23;21008;-82
2021/08/15 04:28:41;;;;;;;170.87;162.70;;;12.50;99.90;;;;;;6215723;23;20720;-80
2021/08/15 04:31:08;;;;;;;171.07;163.07;;;12.60;99.90;;;;;;6214796;23;20482;-77
2021/08/15 04:33:36;;;;;;;174.30;165.60;;;12.60;99.90;;;;;;6215342;23;20948;-78
2021/08/15 04:36:03;;;;;;;171.87;163.67;;;12.60;99.90;;;;;;6215347;23;20907;-78
2021/08/15 04:38:30;;;;;;;168.37;160.07;;;12.70;99.90;;;;;;6186609;23;20449;-80
2021/08/15 04:40:57;;;;;;;175.10;166.67;;;12.70;99.90;;;;;;6215652;23;20445;-78
2021/08/15 04:43:32;;;;;;;171.60;162.93;;;12.80;99.90;;;;;;6215745;23;20402;-84
2021/08/15 04:46:00;;;;;;;185.77;176.80;;;12.80;99.90;;;;;;6215711;23;20401;-83
2021/08/15 04:48:27;;;;;;;178.50;169.87;;;12.90;99.90;;;;;;6215337;23;20452;-84
2021/08/15 04:50:58;;;;;;;182.60;173.57;;;12.90;99.90;;;;;;6225433;23;20452;-83
2021/08/15 04:53:26;;;;;;;181.00;171.77;;;12.90;99.90;;;;;;6214238;23;20405;-81
2021/08/15 04:55:53;;;;;;;175.33;166.97;;;13.00;99.90;;;;;;6215709;23;20419;-84
2021/08/15 04:58:21;;;;;;;182.43;173.37;;;13.20;99.90;;;;;;6225671;23;20817;-84
2021/08/15 05:00:48;;;;;;;172.93;164.73;;;13.30;99.90;;;;;;6225562;23;20411;-79
2021/08/15 05:03:23;;;;;;;174.37;165.60;;;13.30;99.90;;;;;;6215280;23;20408;-81
2021/08/15 05:06:00;;;;;;;167.80;160.20;;;13.40;99.90;;;;;;6225449;23;20508;-83
2021/08/15 05:11:53;;;;;;;;;;;;;;;;;;;;;
2021/08/15 05:14:46;;;;;;;;;;;;;;;;;;;;;
2021/08/15 05:17:30;;;;;;;;;;;;;;;;;;;;;
2021/08/15 05:20:27;;;;;;;151.57;144.57;;;14.20;99.90;;;;;;6225245;23;20407;-84
2021/08/15 05:23:28;;;;;;;;;;;;;;;;;;;;;
2021/08/15 05:26:09;;;;;;;150.93;144.00;;;14.50;99.90;;;;;;6147993;23;20410;-83
2021/08/15 05:31:55;;;;;;;138.57;131.17;;;14.90;99.90;;;;;;6213180;23;20525;-83
2021/08/15 05:35:01;;;;;;;114.37;109.57;;;15.00;99.90;;;;;;6149464;23;20451;-81
2021/08/15 05:37:32;;;;;;;92.73;88.53;;;15.20;99.90;;;;;;6214253;23;20855;-81
2021/08/15 05:41:04;;;;;;;;;;;;;;;;;;;;;
2021/08/15 05:44:09;;;;;;;;;;;;;;;;;;;;;
2021/08/15 05:46:51;;;;;;;16.03;14.60;;;16.10;99.90;;;;;;6047182;23;20792;-81
2021/08/15 05:49:22;;;;;;;15.00;10.70;;;16.20;97.80;;;;;;6216868;23;20492;-81
2021/08/15 05:51:48;;;;;;;12.87;9.50;;;16.30;95.40;;;;;;6217142;23;20458;-80
2021/08/15 05:54:15;;;;;;;14.40;8.47;;;16.50;95.30;;;;;;6216000;23;20727;-81
2021/08/15 05:56:42;;;;;;;13.03;6.90;;;16.90;93.80;;;;;;6217285;23;20408;-84
2021/08/15 05:59:10;;;;;;;15.00;6.97;;;17.20;90.00;;;;;;6216889;23;20498;-79
2021/08/15 06:01:38;;;;;;;13.03;6.77;;;17.50;85.10;;;;;;6226671;23;20407;-81
2021/08/15 06:04:05;;;;;;;13.17;7.63;;;18.10;77.60;;;;;;6216773;23;20407;-80
2021/08/15 06:06:31;;;;;;;11.63;6.77;;;18.20;74.10;;;;;;6217095;23;20432;-80
2021/08/15 06:08:58;;;;;;;13.37;7.17;;;18.20;71.10;;;;;;6216074;23;20401;-82
2021/08/15 06:11:25;;;;;;;13.07;6.20;;;18.40;70.00;;;;;;6216573;23;20527;-80
2021/08/15 06:13:53;;;;;;;9.40;6.27;;;18.40;68.70;;;;;;6216799;23;20482;-81
2021/08/15 06:16:21;;;;;;;10.87;6.63;;;18.60;67.70;;;;;;6216811;23;20884;-83
2021/08/15 06:18:49;;;;;;;15.67;6.07;;;18.50;65.20;;;;;;6217351;23;20380;-79
2021/08/15 06:21:16;;;;;;;12.17;6.17;;;18.80;65.30;;;;;;6217159;23;20491;-81
2021/08/15 06:23:43;;;;;;;10.33;6.57;;;18.90;62.80;;;;;;6215755;23;20435;-81
2021/08/15 06:26:10;;;;;;;9.57;5.87;;;19.10;61.00;;;;;;6217100;23;20751;-81
2021/08/15 06:28:36;;;;;;;10.63;6.60;;;19.30;61.20;;;;;;6227168;23;20436;-81
2021/08/15 06:31:03;;;;;;;13.33;7.20;;;19.40;59.60;;;;;;6216850;23;20820;-82
2021/08/15 06:33:31;;;;;;;17.47;7.10;;;19.30;58.70;;;;;;6216504;23;20432;-81
2021/08/15 06:35:58;;;;;;;12.33;6.63;;;19.10;57.60;;;;;;6216992;23;20475;-82
2021/08/15 06:38:25;;;;;;;13.00;5.33;;;19.00;58.80;;;;;;6215524;23;20459;-81
2021/08/15 06:40:53;;;;;;;12.53;6.10;;;18.90;60.00;;;;;;6216488;23;20426;-81
2021/08/15 06:43:20;;;;;;;11.77;6.57;;;18.90;60.10;;;;;;6216620;23;20424;-81
2021/08/15 06:45:47;;;;;;;15.00;6.20;;;19.00;59.50;;;;;;6217147;23;20400;-82
2021/08/15 06:48:14;;;;;;;10.27;7.03;;;19.20;60.00;;;;;;6216784;23;20428;-82
2021/08/15 06:50:42;;;;;;;11.30;5.80;;;19.10;59.20;;;;;;6216749;23;20420;-82
2021/08/15 06:53:09;;;;;;;9.43;5.67;;;19.20;59.80;;;;;;6214704;23;20900;-81
2021/08/15 06:55:36;;;;;;;9.57;5.10;;;19.30;57.90;;;;;;6216829;23;20404;-82
2021/08/15 06:58:03;;;;;;;9.03;5.27;;;19.30;57.90;;;;;;6226755;23;20419;-83
2021/08/15 07:00:29;;;;;;;14.37;6.20;;;19.30;59.50;;;;;;6226543;23;20462;-81
2021/08/15 07:02:56;;;;;;;10.57;5.40;;;19.50;57.00;;;;;;6216155;23;20486;-81
2021/08/15 07:05:23;;;;;;;10.03;5.10;;;19.60;57.60;;;;;;6216560;23;20526;-80
2021/08/15 07:07:51;;;;;;;12.97;6.17;;;19.70;57.00;;;;;;6215153;23;20431;-80
2021/08/15 07:10:18;;;;;;;13.77;6.20;;;19.70;57.80;;;;;;6216678;23;20487;-79
2021/08/15 07:12:45;;;;;;;14.77;6.70;;;19.80;58.20;;;;;;6216034;23;20519;-79
2021/08/15 07:15:12;;;;;;;12.90;5.50;;;19.80;56.70;;;;;;6216444;23;20488;-82
2021/08/15 07:17:40;;;;;;;8.97;5.00;;;19.90;55.00;;;;;;6213492;23;20407;-78
2021/08/15 07:20:09;;;;;;;10.30;5.70;;;20.00;54.70;;;;;;6214094;23;20415;-80
2021/08/15 07:22:36;;;;;;;11.80;5.20;;;20.30;53.50;;;;;;6213496;23;20414;-82
2021/08/15 07:25:05;;;;;;;10.97;4.67;;;20.50;53.40;;;;;;6214790;23;20405;-84
2021/08/15 07:27:32;;;;;;;11.73;5.00;;;20.40;51.80;;;;;;6214309;23;20906;-87
2021/08/15 07:29:59;;;;;;;9.07;5.00;;;20.40;53.10;;;;;;6213914;23;20408;-83
2021/08/15 07:32:26;;;;;;;10.20;4.97;;;20.60;53.00;;;;;;6215127;23;20459;-87
2021/08/15 07:34:54;;;;;;;8.80;4.10;;;20.80;50.60;;;;;;6214024;23;20518;-83
2021/08/15 07:37:20;;;;;;;11.53;4.60;;;21.00;50.70;;;;;;6214032;23;20396;-84
2021/08/15 07:39:47;;;;;;;17.20;5.00;;;20.90;50.20;;;;;;6215422;23;20495;-85
2021/08/15 07:42:15;;;;;;;8.20;3.80;;;21.10;49.00;;;;;;6214416;23;20490;-83
2021/08/15 07:44:42;;;;;;;10.30;4.77;;;21.00;49.00;;;;;;6213782;23;20958;-89
2021/08/15 07:47:09;;;;;;;9.90;4.17;;;20.90;48.50;;;;;;6214538;23;20432;-90
2021/08/15 07:49:36;;;;;;;9.37;5.20;;;21.10;48.50;;;;;;6214652;23;20407;-85
2021/08/15 07:52:03;;;;;;;9.97;4.53;;;21.30;49.30;;;;;;6224392;23;20446;-82
2021/08/15 07:54:30;;;;;;;8.10;4.50;;;21.30;49.50;;;;;;6170163;23;20493;-85
2021/08/15 07:56:58;;;;;;;12.63;3.60;;;21.40;48.30;;;;;;6214499;23;20729;-82
2021/08/15 07:59:26;;;;;;;10.47;3.97;;;21.40;45.70;;;;;;6214387;23;20396;-80
2021/08/15 08:01:53;;;;;;;9.97;3.87;;;21.70;46.80;;;;;;6216668;23;20875;-87
2021/08/15 08:04:20;;;;;;;7.10;3.60;;;22.00;44.60;;;;;;6215571;23;20427;-89
2021/08/15 08:06:50;;;;;;;7.33;3.50;;;22.60;43.60;;;;;;6215929;23;20787;-84
2021/08/15 08:09:17;;;;;;;8.60;4.20;;;23.10;40.50;;;;;;6214467;23;20487;-87
2021/08/15 08:11:44;;;;;;;7.27;3.83;;;23.50;37.50;;;;;;6215754;23;20424;-87
2021/08/15 08:14:10;;;;;;;7.97;4.17;;;24.00;35.00;;;;;;6215921;23;20400;-84
2021/08/15 08:16:42;;;;;;;12.07;3.80;;;24.20;32.30;;;;;;6215930;23;20794;-81
2021/08/15 08:20:16;;;;;;;;;;;;;;;;;;;;;
2021/08/15 08:26:59;;;;;;;;;;;;;;;;;;;;;
2021/08/15 08:29:58;;;;;;;10.40;3.77;;;26.20;23.90;;;;;;5892134;24;20487;-92
2021/08/15 08:46:50;;;;;;;;;;;;;;;;;;;;;
2021/08/15 08:50:05;;;;;;;;;;;;;;;;;;;;;
2021/08/15 08:53:09;;;;;;;6.83;2.90;;;27.90;15.60;;;;;;5988150;24;20535;-91
2021/08/15 09:06:11;;;;;;;;;;;;;;;;;;;;;
2021/08/15 10:31:09;;;;;;;;;;;;;;;;;;;;;
2021/08/15 10:40:58;;;;;;;;;;;;;;;;;;;;;
2021/08/15 10:44:28;;;;;;;;;;;;;;;;;;;;;
2021/08/15 12:03:29;;;;;;;;;;;;;;;;;;;;;
2021/08/15 12:20:19;;;;;;;6.97;2.90;;;32.70;1.00;;;;;;6215142;22;20455;-89
2021/08/15 12:33:06;;;;;;;;;;;;;;;;;;;;;
2021/08/15 12:46:29;;;;;;;;;;;;;;;;;;;;;
2021/08/15 13:09:16;;;;;;;7.70;3.60;;;31.40;1.00;;;;;;5863024;24;20788;-78
2021/08/15 13:11:44;;;;;;;5.30;1.80;;;30.50;1.00;;;;;;6138867;23;20702;-79
2021/08/15 13:14:11;;;;;;;5.10;2.13;;;30.60;1.00;;;;;;6185403;23;20418;-82
2021/08/15 13:16:37;;;;;;;6.37;2.60;;;30.80;1.00;;;;;;6185336;23;20387;-81
2021/08/15 13:19:04;;;;;;;5.60;2.50;;;30.50;1.00;;;;;;6184989;23;20376;-80
2021/08/15 13:21:31;;;;;;;6.87;2.60;;;31.00;1.00;;;;;;6185062;23;20417;-79
2021/08/15 13:23:58;;;;;;;5.90;2.30;;;31.80;1.00;;;;;;6183989;23;20401;-78
2021/08/15 13:26:24;;;;;;;6.07;2.00;;;32.80;1.00;;;;;;6185426;23;20372;-81
2021/08/15 13:28:52;;;;;;;8.90;2.43;;;33.00;1.00;;;;;;6185380;23;20405;-81
2021/08/15 13:31:19;;;;;;;7.87;2.73;;;32.90;1.00;;;;;;6185555;23;20408;-79
2021/08/15 13:33:46;;;;;;;5.40;2.07;;;33.20;1.00;;;;;;6185440;23;20472;-78
2021/08/15 13:36:13;;;;;;;5.67;2.57;;;33.10;1.00;;;;;;6185202;23;20376;-78
2021/08/15 13:38:40;;;;;;;4.93;1.90;;;33.60;1.00;;;;;;6183423;23;20375;-79
2021/08/15 13:41:06;;;;;;;5.60;2.20;;;33.10;1.00;;;;;;6185576;23;20446;-81
2021/08/15 13:43:33;;;;;;;5.13;2.50;;;33.20;1.00;;;;;;6184976;23;20855;-80
2021/08/15 13:46:01;;;;;;;4.70;2.17;;;32.70;1.00;;;;;;6185088;23;20404;-81
2021/08/15 13:48:28;;;;;;;8.53;2.57;;;33.30;1.00;;;;;;6185487;23;20679;-79
2021/08/15 13:50:55;;;;;;;6.00;2.33;;;32.30;1.00;;;;;;6185126;23;20398;-80
2021/08/15 13:53:21;;;;;;;5.77;2.40;;;32.20;1.00;;;;;;6183823;23;20804;-80
2021/08/15 13:55:48;;;;;;;6.90;2.57;;;32.30;1.00;;;;;;6185412;23;20715;-80
2021/08/15 13:58:15;;;;;;;6.60;2.73;;;33.00;1.00;;;;;;6185252;23;20390;-79
2021/08/15 14:00:42;;;;;;;5.80;2.40;;;33.10;1.00;;;;;;6185024;23;20698;-79
2021/08/15 14:03:10;;;;;;;5.10;1.87;;;33.20;1.00;;;;;;6185443;23;20443;-80
2021/08/15 14:05:38;;;;;;;6.43;2.33;;;33.20;1.00;;;;;;6187902;23;20408;-78
2021/08/15 14:08:05;;;;;;;6.20;2.60;;;32.30;1.00;;;;;;6185632;23;20483;-79
2021/08/15 14:10:32;;;;;;;6.53;2.80;;;31.90;1.00;;;;;;6187154;23;20380;-79
2021/08/15 14:12:59;;;;;;;9.20;3.43;;;31.80;1.00;;;;;;6186550;23;20435;-78
2021/08/15 14:15:25;;;;;;;7.30;2.60;;;32.20;1.00;;;;;;6186981;23;20401;-79
2021/08/15 14:17:52;;;;;;;8.30;2.00;;;32.50;1.00;;;;;;6187037;23;20376;-78
2021/08/15 14:20:20;;;;;;;6.97;2.60;;;33.00;1.00;;;;;;6186715;23;20422;-79
2021/08/15 14:22:47;;;;;;;10.43;2.80;;;32.90;1.00;;;;;;6185666;23;20383;-79
2021/08/15 14:25:14;;;;;;;8.33;3.70;;;33.10;1.00;;;;;;6196498;23;20713;-79
2021/08/15 14:27:41;;;;;;;8.10;2.70;;;33.40;1.00;;;;;;6186637;23;20483;-79
2021/08/15 14:30:09;;;;;;;7.60;2.13;;;33.80;1.00;;;;;;6186904;23;20507;-81
2021/08/15 14:32:36;;;;;;;12.03;2.40;;;33.80;1.00;;;;;;6186786;23;20416;-83
2021/08/15 14:35:04;;;;;;;5.73;2.10;;;33.80;1.00;;;;;;6186806;23;20692;-79
2021/08/15 14:37:32;;;;;;;5.87;2.70;;;34.60;1.00;;;;;;6185259;23;20412;-80
2021/08/15 14:39:59;;;;;;;5.97;2.37;;;34.40;1.00;;;;;;6186812;23;20375;-81
2021/08/15 14:42:26;;;;;;;7.83;2.80;;;32.90;1.00;;;;;;6186737;23;20376;-81
2021/08/15 14:44:53;;;;;;;4.83;1.87;;;32.20;1.00;;;;;;6186707;23;20386;-79
2021/08/15 14:47:19;;;;;;;6.83;2.00;;;32.70;1.00;;;;;;6186611;23;20408;-82
2021/08/15 14:49:46;;;;;;;5.50;1.90;;;32.60;1.00;;;;;;6186578;23;20401;-79
2021/08/15 14:52:13;;;;;;;5.40;2.37;;;32.40;1.00;;;;;;6184631;23;20387;-78
2021/08/15 14:54:41;;;;;;;9.33;2.67;;;32.20;1.00;;;;;;6186435;23;20439;-77
2021/08/15 14:57:09;;;;;;;6.40;2.30;;;32.10;1.00;;;;;;6186588;23;20431;-78
2021/08/15 14:59:36;;;;;;;6.30;2.30;;;32.70;1.00;;;;;;6185763;23;20430;-80
2021/08/15 15:02:03;;;;;;;4.67;1.90;;;33.30;1.00;;;;;;6185500;23;20411;-77
2021/08/15 15:04:30;;;;;;;6.73;2.20;;;33.80;1.00;;;;;;6185553;23;20380;-79
2021/08/15 15:06:58;;;;;;;4.53;1.83;;;33.40;1.00;;;;;;6185480;23;20401;-77
2021/08/15 15:09:25;;;;;;;10.43;2.57;;;33.10;1.00;;;;;;6184112;23;20386;-79
2021/08/15 15:11:54;;;;;;;11.73;2.63;;;33.20;1.00;;;;;;6185462;23;20376;-81
2021/08/15 15:14:21;;;;;;;7.30;2.73;;;33.00;1.00;;;;;;6184949;23;20452;-78
2021/08/15 15:16:48;;;;;;;7.43;2.43;;;32.70;1.00;;;;;;6185584;23;20463;-80
2021/08/15 15:19:15;;;;;;;5.97;2.30;;;32.90;1.00;;;;;;6195015;23;20392;-78
2021/08/15 15:21:41;;;;;;;5.60;2.47;;;33.40;1.00;;;;;;6195071;23;20415;-79
2021/08/15 15:24:08;;;;;;;8.33;2.60;;;34.60;1.00;;;;;;6193559;23;20499;-78
2021/08/15 15:26:35;;;;;;;7.57;2.10;;;34.90;1.00;;;;;;6185606;23;20401;-79
2021/08/15 15:29:03;;;;;;;5.40;2.33;;;34.80;1.00;;;;;;6185079;23;20871;-79
2021/08/15 15:31:30;;;;;;;12.73;2.13;;;34.70;1.00;;;;;;6185239;23;20407;-79
2021/08/15 15:33:57;;;;;;;7.70;2.47;;;34.50;1.00;;;;;;6185173;23;20433;-81
2021/08/15 15:36:24;;;;;;;6.53;2.43;;;34.30;1.00;;;;;;6185139;23;20401;-80
2021/08/15 15:38:52;;;;;;;5.40;2.30;;;33.60;1.00;;;;;;6183947;23;20730;-82
2021/08/15 15:41:19;;;;;;;6.23;2.63;;;33.50;1.00;;;;;;6185278;23;20383;-78
2021/08/15 15:43:46;;;;;;;6.03;2.60;;;33.30;1.00;;;;;;6185376;23;20384;-78
2021/08/15 15:46:19;;;;;;;7.50;2.33;;;33.10;1.00;;;;;;6185233;23;20372;-77
2021/08/15 15:48:46;;;;;;;7.07;2.40;;;32.40;1.00;;;;;;6185260;23;20744;-78
2021/08/15 15:51:14;;;;;;;8.23;2.83;;;31.50;1.00;;;;;;6184730;23;20900;-76
2021/08/15 15:53:41;;;;;;;5.37;2.50;;;30.90;1.00;;;;;;6183735;23;20475;-77
2021/08/15 15:56:08;;;;;;;7.37;3.40;;;30.40;1.00;;;;;;6185153;23;20382;-77
2021/08/15 15:58:35;;;;;;;6.47;2.50;;;29.90;1.00;;;;;;6184941;23;20859;-77
2021/08/15 16:01:02;;;;;;;7.13;2.50;;;29.60;1.00;;;;;;6185072;23;20401;-85
2021/08/15 16:03:32;;;;;;;6.60;2.13;;;29.40;1.00;;;;;;6184975;23;20384;-80
2021/08/15 16:05:59;;;;;;;8.33;2.30;;;29.20;1.00;;;;;;6185126;23;20412;-76
2021/08/15 16:08:26;;;;;;;12.40;3.00;;;29.00;1.00;;;;;;6183388;23;20401;-81
2021/08/15 16:10:53;;;;;;;9.23;2.30;;;28.90;1.00;;;;;;6185260;23;20800;-79
2021/08/15 16:13:20;;;;;;;4.70;2.17;;;28.70;1.00;;;;;;6184630;23;20376;-80
2021/08/15 16:15:48;;;;;;;7.37;2.30;;;28.40;1.00;;;;;;6185444;23;20407;-82
2021/08/15 16:18:15;;;;;;;7.80;2.80;;;28.30;1.00;;;;;;6185808;23;20401;-83
2021/08/15 16:20:43;;;;;;;10.20;3.13;;;28.20;1.00;;;;;;6184992;23;20445;-77
2021/08/15 16:23:10;;;;;;;6.53;2.40;;;28.20;1.00;;;;;;6184386;23;20376;-81
2021/08/15 16:25:37;;;;;;;5.50;2.17;;;27.90;1.00;;;;;;6185327;23;20407;-79
2021/08/15 16:28:04;;;;;;;12.10;3.53;;;27.90;1.00;;;;;;6185638;23;20408;-79
2021/08/15 16:30:31;;;;;;;8.20;2.87;;;28.00;1.00;;;;;;6185372;23;20408;-76
2021/08/15 16:32:58;;;;;;;12.67;3.17;;;28.50;1.00;;;;;;6185428;23;20405;-77
2021/08/15 16:35:24;;;;;;;7.30;2.73;;;29.10;1.00;;;;;;6185855;23;20769;-79
2021/08/15 16:37:53;;;;;;;6.00;3.20;;;29.70;1.00;;;;;;6184169;23;20390;-78
2021/08/15 16:40:20;;;;;;;6.43;2.50;;;29.70;1.00;;;;;;6185950;23;20467;-80
2021/08/15 16:42:47;;;;;;;5.70;2.53;;;29.70;1.00;;;;;;6185548;23;20696;-80
2021/08/15 16:45:13;;;;;;;7.00;2.63;;;30.30;1.00;;;;;;6185811;23;20409;-78
2021/08/15 16:47:40;;;;;;;7.40;2.47;;;30.50;1.00;;;;;;6185662;23;20734;-77
2021/08/15 16:50:08;;;;;;;7.70;2.90;;;30.70;1.00;;;;;;6185275;23;20722;-78
2021/08/15 16:52:35;;;;;;;9.23;2.70;;;30.80;1.00;;;;;;6183983;23;20405;-79
2021/08/15 16:55:04;;;;;;;6.27;2.30;;;30.90;1.00;;;;;;6185503;23;20429;-83
2021/08/15 16:57:31;;;;;;;8.90;2.87;;;30.80;1.00;;;;;;6194619;23;20428;-78
2021/08/15 16:59:58;;;;;;;7.63;2.40;;;30.60;1.00;;;;;;6185035;23;20401;-80
2021/08/15 17:02:25;;;;;;;8.20;2.30;;;30.10;1.00;;;;;;6184781;23;20433;-81
2021/08/15 17:04:52;;;;;;;8.00;3.70;;;29.70;1.00;;;;;;6185640;23;20402;-78
2021/08/15 17:07:18;;;;;;;10.37;2.80;;;29.10;1.00;;;;;;6183896;23;20477;-77
2021/08/15 17:09:45;;;;;;;6.87;2.73;;;28.70;1.00;;;;;;6185434;23;20397;-76
2021/08/15 17:12:13;;;;;;;6.10;2.73;;;28.50;1.00;;;;;;6180752;23;20862;-78
2021/08/15 17:14:40;;;;;;;7.83;2.90;;;28.20;1.00;;;;;;6183822;23;20413;-81
2021/08/15 17:17:07;;;;;;;6.00;2.27;;;28.00;1.00;;;;;;6184014;23;20408;-78
2021/08/15 17:19:34;;;;;;;11.30;2.50;;;27.70;1.00;;;;;;6183360;23;20408;-77
2021/08/15 17:22:01;;;;;;;10.20;2.70;;;27.40;1.00;;;;;;6183556;23;20406;-79
2021/08/15 17:24:28;;;;;;;8.23;2.70;;;27.30;1.00;;;;;;6182442;23;20408;-76
2021/08/15 17:26:55;;;;;;;6.40;2.37;;;27.30;1.00;;;;;;6183301;23;20382;-77
2021/08/15 17:29:24;;;;;;;6.70;2.90;;;27.20;1.00;;;;;;6183819;23;20401;-78
2021/08/15 17:31:50;;;;;;;9.23;3.13;;;27.00;1.30;;;;;;6183624;23;20401;-79
2021/08/15 17:34:17;;;;;;;10.07;3.30;;;27.10;1.40;;;;;;6183317;23;20432;-78
2021/08/15 17:36:46;;;;;;;5.93;2.40;;;26.90;1.30;;;;;;6183492;23;20863;-78
2021/08/15 17:39:13;;;;;;;6.40;2.47;;;27.10;1.40;;;;;;6183709;23;20401;-76
2021/08/15 17:41:40;;;;;;;9.70;2.70;;;27.00;1.30;;;;;;6185742;23;20405;-77
2021/08/15 17:44:07;;;;;;;10.37;2.70;;;27.00;1.30;;;;;;6185819;23;20408;-76
2021/08/15 17:46:35;;;;;;;7.40;2.43;;;26.80;3.80;;;;;;6185638;23;20409;-77
2021/08/15 17:49:02;;;;;;;9.87;2.40;;;26.60;6.20;;;;;;6185830;23;20401;-77
2021/08/15 17:51:29;;;;;;;11.80;4.00;;;26.30;6.50;;;;;;6185072;23;20405;-77
2021/08/15 17:53:56;;;;;;;6.30;2.57;;;26.40;8.40;;;;;;6183848;23;20469;-80
2021/08/15 17:56:22;;;;;;;6.67;2.47;;;26.40;5.70;;;;;;6185274;23;20906;-78
2021/08/15 17:58:49;;;;;;;15.67;4.20;;;26.40;6.50;;;;;;6185272;23;20392;-77
2021/08/15 18:01:16;;;;;;;21.70;4.47;;;26.50;6.30;;;;;;6185034;23;20437;-80
2021/08/15 18:03:44;;;;;;;12.10;4.60;;;26.60;4.60;;;;;;6185259;23;20401;-78
2021/08/15 18:06:11;;;;;;;7.80;2.70;;;26.60;4.40;;;;;;6185645;23;20405;-81
2021/08/15 18:08:38;;;;;;;5.73;2.50;;;26.60;6.10;;;;;;6184080;23;20407;-79
2021/08/15 18:11:05;;;;;;;6.70;2.23;;;26.50;8.00;;;;;;6185120;23;20896;-82
2021/08/15 18:13:32;;;;;;;6.30;2.80;;;26.40;7.70;;;;;;6185243;23;20383;-79
2021/08/15 18:15:59;;;;;;;6.77;2.53;;;26.20;7.20;;;;;;6184741;23;20444;-82
2021/08/15 18:18:26;;;;;;;6.90;2.83;;;26.10;7.80;;;;;;6186292;23;20405;-80
2021/08/15 18:20:54;;;;;;;12.10;3.40;;;25.90;8.60;;;;;;6186545;23;20448;-80
2021/08/15 18:23:20;;;;;;;7.03;3.47;;;25.80;9.80;;;;;;6195355;23;20745;-79
2021/08/15 18:25:48;;;;;;;9.40;3.10;;;25.60;9.40;;;;;;6187104;23;20403;-79
2021/08/15 18:28:15;;;;;;;7.80;2.40;;;25.50;8.80;;;;;;6186759;23;20888;-79
2021/08/15 18:30:42;;;;;;;9.73;2.60;;;25.30;9.80;;;;;;6187012;23;20401;-78
2021/08/15 18:33:09;;;;;;;12.23;2.70;;;25.20;10.50;;;;;;6196540;23;20380;-82
2021/08/15 18:35:37;;;;;;;7.80;2.83;;;25.00;12.00;;;;;;6186365;23;20443;-80
2021/08/15 18:38:05;;;;;;;9.10;3.13;;;24.80;12.50;;;;;;6185208;23;20397;-79
2021/08/15 18:40:33;;;;;;;8.47;3.07;;;24.50;13.80;;;;;;6196385;23;20415;-79
2021/08/15 18:43:00;;;;;;;8.53;3.57;;;24.30;14.00;;;;;;6186447;23;20404;-79
2021/08/15 18:45:27;;;;;;;9.13;3.50;;;24.20;14.50;;;;;;6186939;23;20397;-77
2021/08/15 18:47:54;;;;;;;8.40;3.53;;;24.00;13.40;;;;;;6186742;23;20404;-77
2021/08/15 18:50:21;;;;;;;10.00;2.50;;;23.80;13.90;;;;;;6185998;23;20987;-79
2021/08/15 18:52:48;;;;;;;8.40;2.53;;;23.70;13.50;;;;;;6185263;23;20404;-84